sensor_id;sensor_type;location;lat;lon;timestamp;P1;durP1;ratioP1;P2;durP2;ratioP2
19255;SDS011;9762;52.490;13.410;2023-05-24T00:01:30;14.17;;;3.83;;
19255;SDS011;9762;52.490;13.410;2023-05-24T00:03:56;9.23;;;3.10;;
19255;SDS011;9762;52.490;13.410;2023-05-24T00:06:23;10.23;;;3.37;;
19255;SDS011;9762;52.490;13.410;2023-05-24T00:08:51;13.03;;;3.70;;
19255;SDS011;9762;52.490;13.410;2023-05-24T00:11:17;12.40;;;3.03;;
19255;SDS011;9762;52.490;13.410;2023-05-24T00:13:43;13.80;;;3.40;;
19255;SDS011;9762;52.490;13.410;2023-05-24T00:16:09;16.63;;;3.77;;
19255;SDS011;9762;52.490;13.410;2023-05-24T00:18:34;11.13;;;3.13;;
19255;SDS011;9762;52.490;13.410;2023-05-24T00:21:05;11.30;;;3.23;;
19255;SDS011;9762;52.490;13.410;2023-05-24T00:23:34;7.23;;;3.03;;
19255;SDS011;9762;52.490;13.410;2023-05-24T00:26:01;13.47;;;3.43;;
19255;SDS011;9762;52.490;13.410;2023-05-24T00:28:27;8.07;;;3.10;;
19255;SDS011;9762;52.490;13.410;2023-05-24T00:30:53;11.93;;;3.47;;
19255;SDS011;9762;52.490;13.410;2023-05-24T00:33:18;10.57;;;3.57;;
19255;SDS011;9762;52.490;13.410;2023-05-24T00:35:47;10.07;;;3.33;;
19255;SDS011;9762;52.490;13.410;2023-05-24T00:38:13;10.17;;;3.17;;
19255;SDS011;9762;52.490;13.410;2023-05-24T00:40:39;9.67;;;3.60;;
19255;SDS011;9762;52.490;13.410;2023-05-24T00:43:04;15.53;;;3.27;;
19255;SDS011;9762;52.490;13.410;2023-05-24T00:45:30;15.20;;;3.77;;
19255;SDS011;9762;52.490;13.410;2023-05-24T00:47:56;7.20;;;3.13;;
19255;SDS011;9762;52.490;13.410;2023-05-24T00:50:21;12.63;;;3.83;;
19255;SDS011;9762;52.490;13.410;2023-05-24T00:52:48;8.70;;;3.03;;
19255;SDS011;9762;52.490;13.410;2023-05-24T00:55:15;9.53;;;2.97;;
19255;SDS011;9762;52.490;13.410;2023-05-24T00:57:41;8.00;;;3.00;;
19255;SDS011;9762;52.490;13.410;2023-05-24T01:00:07;11.13;;;3.73;;
19255;SDS011;9762;52.490;13.410;2023-05-24T01:02:33;10.67;;;3.73;;
19255;SDS011;9762;52.490;13.410;2023-05-24T01:04:59;10.60;;;2.80;;
19255;SDS011;9762;52.490;13.410;2023-05-24T01:13:04;7.57;;;2.50;;
19255;SDS011;9762;52.490;13.410;2023-05-24T01:21:27;13.00;;;3.50;;
19255;SDS011;9762;52.490;13.410;2023-05-24T01:24:04;8.90;;;3.20;;
19255;SDS011;9762;52.490;13.410;2023-05-24T01:27:22;9.63;;;3.20;;
19255;SDS011;9762;52.490;13.410;2023-05-24T01:29:41;9.63;;;2.90;;
19255;SDS011;9762;52.490;13.410;2023-05-24T01:32:07;10.03;;;3.20;;
19255;SDS011;9762;52.490;13.410;2023-05-24T01:34:33;7.17;;;3.10;;
19255;SDS011;9762;52.490;13.410;2023-05-24T01:36:59;7.40;;;3.47;;
19255;SDS011;9762;52.490;13.410;2023-05-24T01:39:25;6.77;;;3.30;;
19255;SDS011;9762;52.490;13.410;2023-05-24T01:44:26;8.33;;;3.87;;
19255;SDS011;9762;52.490;13.410;2023-05-24T01:46:56;9.40;;;3.47;;
19255;SDS011;9762;52.490;13.410;2023-05-24T01:49:30;10.40;;;3.43;;
19255;SDS011;9762;52.490;13.410;2023-05-24T01:52:02;12.13;;;3.40;;
19255;SDS011;9762;52.490;13.410;2023-05-24T01:54:32;10.93;;;3.87;;
19255;SDS011;9762;52.490;13.410;2023-05-24T01:57:03;17.70;;;3.40;;
19255;SDS011;9762;52.490;13.410;2023-05-24T01:59:31;9.87;;;3.73;;
19255;SDS011;9762;52.490;13.410;2023-05-24T02:01:57;8.73;;;3.43;;
19255;SDS011;9762;52.490;13.410;2023-05-24T02:04:23;15.80;;;3.40;;
19255;SDS011;9762;52.490;13.410;2023-05-24T02:06:49;9.47;;;3.73;;
19255;SDS011;9762;52.490;13.410;2023-05-24T02:09:15;11.67;;;3.60;;
19255;SDS011;9762;52.490;13.410;2023-05-24T02:11:41;7.90;;;3.50;;
19255;SDS011;9762;52.490;13.410;2023-05-24T02:14:06;9.50;;;3.30;;
19255;SDS011;9762;52.490;13.410;2023-05-24T02:16:32;9.70;;;3.10;;
19255;SDS011;9762;52.490;13.410;2023-05-24T02:18:58;13.20;;;3.63;;
19255;SDS011;9762;52.490;13.410;2023-05-24T02:21:24;11.20;;;3.10;;
19255;SDS011;9762;52.490;13.410;2023-05-24T02:23:51;11.50;;;3.33;;
19255;SDS011;9762;52.490;13.410;2023-05-24T02:26:17;10.57;;;3.70;;
19255;SDS011;9762;52.490;13.410;2023-05-24T02:28:43;10.83;;;3.47;;
19255;SDS011;9762;52.490;13.410;2023-05-24T02:31:09;13.07;;;3.67;;
19255;SDS011;9762;52.490;13.410;2023-05-24T02:33:35;12.30;;;3.77;;
19255;SDS011;9762;52.490;13.410;2023-05-24T02:36:01;13.83;;;3.50;;
19255;SDS011;9762;52.490;13.410;2023-05-24T02:38:27;12.03;;;3.27;;
19255;SDS011;9762;52.490;13.410;2023-05-24T02:40:52;11.73;;;3.03;;
19255;SDS011;9762;52.490;13.410;2023-05-24T02:43:18;11.10;;;2.93;;
19255;SDS011;9762;52.490;13.410;2023-05-24T02:45:44;8.63;;;2.97;;
19255;SDS011;9762;52.490;13.410;2023-05-24T02:48:09;9.60;;;2.80;;
19255;SDS011;9762;52.490;13.410;2023-05-24T02:50:35;8.07;;;3.10;;
19255;SDS011;9762;52.490;13.410;2023-05-24T02:53:01;11.50;;;3.90;;
19255;SDS011;9762;52.490;13.410;2023-05-24T02:55:26;10.37;;;2.90;;
19255;SDS011;9762;52.490;13.410;2023-05-24T02:57:53;19.77;;;3.77;;
19255;SDS011;9762;52.490;13.410;2023-05-24T03:00:19;12.47;;;3.30;;
19255;SDS011;9762;52.490;13.410;2023-05-24T03:02:45;10.03;;;3.63;;
19255;SDS011;9762;52.490;13.410;2023-05-24T03:05:11;8.83;;;3.23;;
19255;SDS011;9762;52.490;13.410;2023-05-24T03:07:37;13.27;;;4.60;;
19255;SDS011;9762;52.490;13.410;2023-05-24T03:10:03;15.60;;;3.40;;
19255;SDS011;9762;52.490;13.410;2023-05-24T03:12:28;9.97;;;3.53;;
19255;SDS011;9762;52.490;13.410;2023-05-24T03:14:54;11.37;;;3.57;;
19255;SDS011;9762;52.490;13.410;2023-05-24T03:17:20;15.10;;;4.03;;
19255;SDS011;9762;52.490;13.410;2023-05-24T03:19:45;21.10;;;4.30;;
19255;SDS011;9762;52.490;13.410;2023-05-24T03:22:11;14.90;;;3.80;;
19255;SDS011;9762;52.490;13.410;2023-05-24T03:24:36;16.30;;;4.00;;
19255;SDS011;9762;52.490;13.410;2023-05-24T03:27:03;12.40;;;3.47;;
19255;SDS011;9762;52.490;13.410;2023-05-24T03:29:29;14.90;;;4.10;;
19255;SDS011;9762;52.490;13.410;2023-05-24T03:31:55;13.47;;;3.67;;
19255;SDS011;9762;52.490;13.410;2023-05-24T03:34:21;14.33;;;4.33;;
19255;SDS011;9762;52.490;13.410;2023-05-24T03:36:46;13.27;;;3.67;;
19255;SDS011;9762;52.490;13.410;2023-05-24T03:39:12;11.53;;;3.70;;
19255;SDS011;9762;52.490;13.410;2023-05-24T03:41:38;12.50;;;3.77;;
19255;SDS011;9762;52.490;13.410;2023-05-24T03:44:03;8.67;;;3.63;;
19255;SDS011;9762;52.490;13.410;2023-05-24T03:46:29;9.93;;;2.70;;
19255;SDS011;9762;52.490;13.410;2023-05-24T03:48:55;12.63;;;3.77;;
19255;SDS011;9762;52.490;13.410;2023-05-24T03:51:20;8.80;;;3.93;;
19255;SDS011;9762;52.490;13.410;2023-05-24T03:53:53;11.47;;;3.33;;
19255;SDS011;9762;52.490;13.410;2023-05-24T03:56:22;11.70;;;3.90;;
19255;SDS011;9762;52.490;13.410;2023-05-24T03:58:48;9.97;;;3.43;;
19255;SDS011;9762;52.490;13.410;2023-05-24T04:01:14;14.07;;;3.50;;
19255;SDS011;9762;52.490;13.410;2023-05-24T04:03:40;12.20;;;3.80;;
19255;SDS011;9762;52.490;13.410;2023-05-24T04:06:06;10.17;;;3.53;;
19255;SDS011;9762;52.490;13.410;2023-05-24T04:08:32;9.17;;;3.17;;
19255;SDS011;9762;52.490;13.410;2023-05-24T04:10:57;11.20;;;3.53;;
19255;SDS011;9762;52.490;13.410;2023-05-24T04:13:23;10.57;;;3.37;;
19255;SDS011;9762;52.490;13.410;2023-05-24T04:15:48;9.77;;;3.80;;
19255;SDS011;9762;52.490;13.410;2023-05-24T04:18:14;10.90;;;3.00;;
19255;SDS011;9762;52.490;13.410;2023-05-24T04:20:40;13.57;;;3.70;;
19255;SDS011;9762;52.490;13.410;2023-05-24T04:23:05;8.80;;;3.67;;
19255;SDS011;9762;52.490;13.410;2023-05-24T04:25:31;7.97;;;3.63;;
19255;SDS011;9762;52.490;13.410;2023-05-24T04:27:57;10.17;;;3.67;;
19255;SDS011;9762;52.490;13.410;2023-05-24T04:30:24;16.47;;;3.93;;
19255;SDS011;9762;52.490;13.410;2023-05-24T04:32:50;17.53;;;4.17;;
19255;SDS011;9762;52.490;13.410;2023-05-24T04:35:16;16.40;;;3.83;;
19255;SDS011;9762;52.490;13.410;2023-05-24T04:37:42;12.50;;;4.03;;
19255;SDS011;9762;52.490;13.410;2023-05-24T04:40:08;18.73;;;4.03;;
19255;SDS011;9762;52.490;13.410;2023-05-24T04:42:34;12.97;;;3.80;;
19255;SDS011;9762;52.490;13.410;2023-05-24T04:45:00;13.80;;;3.83;;
19255;SDS011;9762;52.490;13.410;2023-05-24T04:47:26;12.70;;;3.50;;
19255;SDS011;9762;52.490;13.410;2023-05-24T04:49:51;19.03;;;4.73;;
19255;SDS011;9762;52.490;13.410;2023-05-24T04:52:17;9.33;;;3.53;;
19255;SDS011;9762;52.490;13.410;2023-05-24T04:54:43;11.57;;;3.67;;
19255;SDS011;9762;52.490;13.410;2023-05-24T04:57:08;13.27;;;3.90;;
19255;SDS011;9762;52.490;13.410;2023-05-24T04:59:34;13.57;;;4.43;;
19255;SDS011;9762;52.490;13.410;2023-05-24T05:02:00;16.77;;;4.33;;
19255;SDS011;9762;52.490;13.410;2023-05-24T05:04:26;16.27;;;4.33;;
19255;SDS011;9762;52.490;13.410;2023-05-24T05:06:52;18.27;;;3.57;;
19255;SDS011;9762;52.490;13.410;2023-05-24T05:09:19;16.97;;;3.80;;
19255;SDS011;9762;52.490;13.410;2023-05-24T05:11:45;11.00;;;3.93;;
19255;SDS011;9762;52.490;13.410;2023-05-24T05:14:12;17.93;;;4.40;;
19255;SDS011;9762;52.490;13.410;2023-05-24T05:16:37;16.63;;;4.67;;
19255;SDS011;9762;52.490;13.410;2023-05-24T05:19:03;14.47;;;3.97;;
19255;SDS011;9762;52.490;13.410;2023-05-24T05:21:29;14.37;;;3.87;;
19255;SDS011;9762;52.490;13.410;2023-05-24T05:23:58;13.03;;;4.20;;
19255;SDS011;9762;52.490;13.410;2023-05-24T05:26:25;19.80;;;4.67;;
19255;SDS011;9762;52.490;13.410;2023-05-24T05:28:51;13.50;;;5.20;;
19255;SDS011;9762;52.490;13.410;2023-05-24T05:31:18;21.00;;;5.50;;
19255;SDS011;9762;52.490;13.410;2023-05-24T05:33:44;20.17;;;5.07;;
19255;SDS011;9762;52.490;13.410;2023-05-24T05:36:10;12.43;;;4.30;;
19255;SDS011;9762;52.490;13.410;2023-05-24T05:38:35;20.03;;;5.30;;
19255;SDS011;9762;52.490;13.410;2023-05-24T05:41:01;12.67;;;4.70;;
19255;SDS011;9762;52.490;13.410;2023-05-24T05:43:27;22.73;;;5.50;;
19255;SDS011;9762;52.490;13.410;2023-05-24T05:45:53;26.30;;;5.50;;
19255;SDS011;9762;52.490;13.410;2023-05-24T05:48:19;19.87;;;4.60;;
19255;SDS011;9762;52.490;13.410;2023-05-24T05:50:45;13.73;;;5.17;;
19255;SDS011;9762;52.490;13.410;2023-05-24T05:53:10;17.17;;;4.87;;
19255;SDS011;9762;52.490;13.410;2023-05-24T05:55:36;16.77;;;5.07;;
19255;SDS011;9762;52.490;13.410;2023-05-24T05:58:02;18.80;;;5.37;;
19255;SDS011;9762;52.490;13.410;2023-05-24T06:00:27;24.53;;;6.50;;
19255;SDS011;9762;52.490;13.410;2023-05-24T06:02:53;16.57;;;4.90;;
19255;SDS011;9762;52.490;13.410;2023-05-24T06:05:18;22.57;;;6.00;;
19255;SDS011;9762;52.490;13.410;2023-05-24T06:07:44;20.77;;;6.47;;
19255;SDS011;9762;52.490;13.410;2023-05-24T06:10:11;14.77;;;5.43;;
19255;SDS011;9762;52.490;13.410;2023-05-24T06:12:37;18.73;;;5.43;;
19255;SDS011;9762;52.490;13.410;2023-05-24T06:15:04;20.47;;;4.90;;
19255;SDS011;9762;52.490;13.410;2023-05-24T06:17:33;20.70;;;5.87;;
19255;SDS011;9762;52.490;13.410;2023-05-24T06:19:59;21.43;;;5.57;;
19255;SDS011;9762;52.490;13.410;2023-05-24T06:22:25;15.83;;;5.23;;
19255;SDS011;9762;52.490;13.410;2023-05-24T06:24:53;16.67;;;5.13;;
19255;SDS011;9762;52.490;13.410;2023-05-24T06:27:19;21.53;;;5.47;;
19255;SDS011;9762;52.490;13.410;2023-05-24T06:29:45;14.80;;;5.13;;
19255;SDS011;9762;52.490;13.410;2023-05-24T06:32:11;16.90;;;5.30;;
19255;SDS011;9762;52.490;13.410;2023-05-24T06:34:36;25.07;;;5.70;;
19255;SDS011;9762;52.490;13.410;2023-05-24T06:37:02;17.40;;;5.33;;
19255;SDS011;9762;52.490;13.410;2023-05-24T06:39:28;19.60;;;5.20;;
19255;SDS011;9762;52.490;13.410;2023-05-24T06:41:53;18.10;;;5.10;;
19255;SDS011;9762;52.490;13.410;2023-05-24T06:44:19;21.67;;;5.53;;
19255;SDS011;9762;52.490;13.410;2023-05-24T06:46:47;19.80;;;5.63;;
19255;SDS011;9762;52.490;13.410;2023-05-24T06:49:13;13.90;;;5.13;;
19255;SDS011;9762;52.490;13.410;2023-05-24T06:51:38;19.70;;;6.13;;
19255;SDS011;9762;52.490;13.410;2023-05-24T06:54:04;17.93;;;5.33;;
19255;SDS011;9762;52.490;13.410;2023-05-24T06:56:30;21.97;;;5.97;;
19255;SDS011;9762;52.490;13.410;2023-05-24T06:58:57;22.13;;;5.57;;
19255;SDS011;9762;52.490;13.410;2023-05-24T07:01:23;15.87;;;5.03;;
19255;SDS011;9762;52.490;13.410;2023-05-24T07:03:48;16.43;;;5.17;;
19255;SDS011;9762;52.490;13.410;2023-05-24T07:06:14;17.27;;;5.30;;
19255;SDS011;9762;52.490;13.410;2023-05-24T07:08:40;23.53;;;8.13;;
19255;SDS011;9762;52.490;13.410;2023-05-24T07:11:06;23.67;;;5.50;;
19255;SDS011;9762;52.490;13.410;2023-05-24T07:13:32;18.33;;;5.40;;
19255;SDS011;9762;52.490;13.410;2023-05-24T07:15:58;23.67;;;5.90;;
19255;SDS011;9762;52.490;13.410;2023-05-24T07:18:23;23.40;;;6.03;;
19255;SDS011;9762;52.490;13.410;2023-05-24T07:20:49;17.23;;;5.00;;
19255;SDS011;9762;52.490;13.410;2023-05-24T07:23:15;25.60;;;5.90;;
19255;SDS011;9762;52.490;13.410;2023-05-24T07:25:41;16.73;;;5.13;;
19255;SDS011;9762;52.490;13.410;2023-05-24T07:28:06;27.30;;;6.33;;
19255;SDS011;9762;52.490;13.410;2023-05-24T07:30:32;26.57;;;5.57;;
19255;SDS011;9762;52.490;13.410;2023-05-24T07:32:59;18.87;;;5.00;;
19255;SDS011;9762;52.490;13.410;2023-05-24T07:35:24;19.90;;;5.50;;
19255;SDS011;9762;52.490;13.410;2023-05-24T07:37:52;22.67;;;5.43;;
19255;SDS011;9762;52.490;13.410;2023-05-24T07:40:18;25.47;;;8.43;;
19255;SDS011;9762;52.490;13.410;2023-05-24T07:42:43;20.97;;;5.03;;
19255;SDS011;9762;52.490;13.410;2023-05-24T07:45:11;19.40;;;5.53;;
19255;SDS011;9762;52.490;13.410;2023-05-24T07:47:37;20.20;;;5.57;;
19255;SDS011;9762;52.490;13.410;2023-05-24T07:50:03;15.50;;;5.60;;
19255;SDS011;9762;52.490;13.410;2023-05-24T07:52:29;21.43;;;5.40;;
19255;SDS011;9762;52.490;13.410;2023-05-24T07:54:55;17.17;;;4.77;;
19255;SDS011;9762;52.490;13.410;2023-05-24T07:57:20;22.47;;;5.83;;
19255;SDS011;9762;52.490;13.410;2023-05-24T07:59:46;17.97;;;5.20;;
19255;SDS011;9762;52.490;13.410;2023-05-24T08:02:12;16.97;;;5.03;;
19255;SDS011;9762;52.490;13.410;2023-05-24T08:04:40;15.53;;;5.33;;
19255;SDS011;9762;52.490;13.410;2023-05-24T08:07:06;19.03;;;5.43;;
19255;SDS011;9762;52.490;13.410;2023-05-24T08:09:32;21.13;;;5.93;;
19255;SDS011;9762;52.490;13.410;2023-05-24T08:12:00;22.73;;;5.50;;
19255;SDS011;9762;52.490;13.410;2023-05-24T08:14:26;14.53;;;5.23;;
19255;SDS011;9762;52.490;13.410;2023-05-24T08:16:52;16.20;;;5.83;;
19255;SDS011;9762;52.490;13.410;2023-05-24T08:19:18;25.73;;;5.63;;
19255;SDS011;9762;52.490;13.410;2023-05-24T08:21:44;14.33;;;5.20;;
19255;SDS011;9762;52.490;13.410;2023-05-24T08:24:09;15.13;;;4.97;;
19255;SDS011;9762;52.490;13.410;2023-05-24T08:26:35;18.40;;;5.20;;
19255;SDS011;9762;52.490;13.410;2023-05-24T08:29:02;15.23;;;4.93;;
19255;SDS011;9762;52.490;13.410;2023-05-24T08:31:27;16.73;;;5.13;;
19255;SDS011;9762;52.490;13.410;2023-05-24T08:33:53;18.63;;;5.00;;
19255;SDS011;9762;52.490;13.410;2023-05-24T08:36:21;21.33;;;5.40;;
19255;SDS011;9762;52.490;13.410;2023-05-24T08:38:46;20.50;;;5.33;;
19255;SDS011;9762;52.490;13.410;2023-05-24T08:41:12;13.30;;;5.10;;
19255;SDS011;9762;52.490;13.410;2023-05-24T08:43:38;14.90;;;5.00;;
19255;SDS011;9762;52.490;13.410;2023-05-24T08:46:05;17.50;;;4.77;;
19255;SDS011;9762;52.490;13.410;2023-05-24T08:48:31;16.20;;;4.40;;
19255;SDS011;9762;52.490;13.410;2023-05-24T08:51:01;17.77;;;5.07;;
19255;SDS011;9762;52.490;13.410;2023-05-24T08:53:28;15.13;;;4.80;;
19255;SDS011;9762;52.490;13.410;2023-05-24T08:55:54;13.47;;;4.33;;
19255;SDS011;9762;52.490;13.410;2023-05-24T08:58:20;6.80;;;3.73;;
19255;SDS011;9762;52.490;13.410;2023-05-24T09:00:46;13.27;;;4.30;;
19255;SDS011;9762;52.490;13.410;2023-05-24T09:03:12;10.70;;;4.20;;
19255;SDS011;9762;52.490;13.410;2023-05-24T09:05:38;13.50;;;4.27;;
19255;SDS011;9762;52.490;13.410;2023-05-24T09:08:05;12.90;;;4.37;;
19255;SDS011;9762;52.490;13.410;2023-05-24T09:10:32;8.17;;;3.73;;
19255;SDS011;9762;52.490;13.410;2023-05-24T09:12:59;12.47;;;4.17;;
19255;SDS011;9762;52.490;13.410;2023-05-24T09:15:27;19.40;;;4.60;;
19255;SDS011;9762;52.490;13.410;2023-05-24T09:17:52;12.57;;;3.93;;
19255;SDS011;9762;52.490;13.410;2023-05-24T09:20:19;16.07;;;4.40;;
19255;SDS011;9762;52.490;13.410;2023-05-24T09:22:46;10.53;;;3.80;;
19255;SDS011;9762;52.490;13.410;2023-05-24T09:25:16;10.60;;;4.13;;
19255;SDS011;9762;52.490;13.410;2023-05-24T09:27:47;14.83;;;3.83;;
19255;SDS011;9762;52.490;13.410;2023-05-24T09:30:17;13.93;;;4.60;;
19255;SDS011;9762;52.490;13.410;2023-05-24T09:32:53;7.83;;;4.07;;
19255;SDS011;9762;52.490;13.410;2023-05-24T09:35:22;13.30;;;4.70;;
19255;SDS011;9762;52.490;13.410;2023-05-24T09:37:51;15.63;;;4.60;;
19255;SDS011;9762;52.490;13.410;2023-05-24T09:40:19;13.60;;;4.83;;
19255;SDS011;9762;52.490;13.410;2023-05-24T09:42:45;11.57;;;4.40;;
19255;SDS011;9762;52.490;13.410;2023-05-24T09:45:12;12.43;;;4.10;;
19255;SDS011;9762;52.490;13.410;2023-05-24T09:47:39;8.53;;;3.93;;
19255;SDS011;9762;52.490;13.410;2023-05-24T09:50:15;9.27;;;3.77;;
19255;SDS011;9762;52.490;13.410;2023-05-24T09:52:41;13.70;;;4.70;;
19255;SDS011;9762;52.490;13.410;2023-05-24T09:55:13;15.60;;;5.17;;
19255;SDS011;9762;52.490;13.410;2023-05-24T09:57:40;12.87;;;4.57;;
19255;SDS011;9762;52.490;13.410;2023-05-24T10:00:09;11.00;;;3.97;;
19255;SDS011;9762;52.490;13.410;2023-05-24T10:02:44;12.53;;;4.57;;
19255;SDS011;9762;52.490;13.410;2023-05-24T10:05:11;11.13;;;4.80;;
19255;SDS011;9762;52.490;13.410;2023-05-24T10:07:37;10.43;;;4.60;;
19255;SDS011;9762;52.490;13.410;2023-05-24T10:10:04;13.73;;;4.50;;
19255;SDS011;9762;52.490;13.410;2023-05-24T10:12:32;8.23;;;3.60;;
19255;SDS011;9762;52.490;13.410;2023-05-24T10:14:59;12.63;;;4.00;;
19255;SDS011;9762;52.490;13.410;2023-05-24T10:17:27;9.70;;;3.57;;
19255;SDS011;9762;52.490;13.410;2023-05-24T10:19:52;11.93;;;3.70;;
19255;SDS011;9762;52.490;13.410;2023-05-24T10:22:18;11.47;;;4.23;;
19255;SDS011;9762;52.490;13.410;2023-05-24T10:24:49;11.83;;;4.10;;
19255;SDS011;9762;52.490;13.410;2023-05-24T10:27:23;6.30;;;3.20;;
19255;SDS011;9762;52.490;13.410;2023-05-24T10:30:03;13.83;;;4.27;;
19255;SDS011;9762;52.490;13.410;2023-05-24T10:32:36;11.67;;;3.27;;
19255;SDS011;9762;52.490;13.410;2023-05-24T10:35:04;17.87;;;4.33;;
19255;SDS011;9762;52.490;13.410;2023-05-24T10:37:31;10.63;;;3.67;;
19255;SDS011;9762;52.490;13.410;2023-05-24T10:39:58;10.10;;;4.03;;
19255;SDS011;9762;52.490;13.410;2023-05-24T10:42:24;11.17;;;4.27;;
19255;SDS011;9762;52.490;13.410;2023-05-24T10:44:50;8.00;;;4.00;;
19255;SDS011;9762;52.490;13.410;2023-05-24T10:47:16;10.63;;;4.30;;
19255;SDS011;9762;52.490;13.410;2023-05-24T10:49:55;10.57;;;4.03;;
19255;SDS011;9762;52.490;13.410;2023-05-24T10:52:32;15.60;;;4.33;;
19255;SDS011;9762;52.490;13.410;2023-05-24T10:57:29;11.63;;;4.23;;
19255;SDS011;9762;52.490;13.410;2023-05-24T11:00:24;16.33;;;4.07;;
19255;SDS011;9762;52.490;13.410;2023-05-24T11:02:49;11.43;;;4.10;;
19255;SDS011;9762;52.490;13.410;2023-05-24T11:05:15;10.17;;;3.80;;
19255;SDS011;9762;52.490;13.410;2023-05-24T11:07:42;9.13;;;3.80;;
19255;SDS011;9762;52.490;13.410;2023-05-24T11:10:08;6.40;;;3.47;;
19255;SDS011;9762;52.490;13.410;2023-05-24T11:12:59;11.83;;;3.73;;
19255;SDS011;9762;52.490;13.410;2023-05-24T11:15:26;9.33;;;3.80;;
19255;SDS011;9762;52.490;13.410;2023-05-24T11:20:36;12.60;;;4.07;;
19255;SDS011;9762;52.490;13.410;2023-05-24T11:23:02;10.53;;;3.30;;
19255;SDS011;9762;52.490;13.410;2023-05-24T11:25:31;10.37;;;4.03;;
19255;SDS011;9762;52.490;13.410;2023-05-24T11:27:57;12.17;;;3.47;;
19255;SDS011;9762;52.490;13.410;2023-05-24T11:30:25;11.33;;;3.87;;
19255;SDS011;9762;52.490;13.410;2023-05-24T11:32:51;6.90;;;3.10;;
19255;SDS011;9762;52.490;13.410;2023-05-24T11:35:17;7.40;;;3.60;;
19255;SDS011;9762;52.490;13.410;2023-05-24T11:37:43;4.57;;;3.13;;
19255;SDS011;9762;52.490;13.410;2023-05-24T11:40:09;7.67;;;3.27;;
19255;SDS011;9762;52.490;13.410;2023-05-24T11:42:35;9.10;;;3.00;;
19255;SDS011;9762;52.490;13.410;2023-05-24T11:45:02;8.83;;;3.90;;
19255;SDS011;9762;52.490;13.410;2023-05-24T11:47:29;6.57;;;3.57;;
19255;SDS011;9762;52.490;13.410;2023-05-24T11:49:54;7.90;;;3.40;;
19255;SDS011;9762;52.490;13.410;2023-05-24T11:52:20;8.57;;;3.73;;
19255;SDS011;9762;52.490;13.410;2023-05-24T11:54:46;6.50;;;3.23;;
19255;SDS011;9762;52.490;13.410;2023-05-24T11:57:12;8.50;;;3.30;;
19255;SDS011;9762;52.490;13.410;2023-05-24T11:59:39;7.60;;;3.53;;
19255;SDS011;9762;52.490;13.410;2023-05-24T12:02:05;7.53;;;3.43;;
19255;SDS011;9762;52.490;13.410;2023-05-24T12:04:34;9.90;;;3.63;;
19255;SDS011;9762;52.490;13.410;2023-05-24T12:07:00;5.90;;;3.23;;
19255;SDS011;9762;52.490;13.410;2023-05-24T12:09:27;6.83;;;3.10;;
19255;SDS011;9762;52.490;13.410;2023-05-24T12:11:52;11.37;;;4.10;;
19255;SDS011;9762;52.490;13.410;2023-05-24T12:14:22;6.73;;;3.17;;
19255;SDS011;9762;52.490;13.410;2023-05-24T12:16:52;7.63;;;3.40;;
19255;SDS011;9762;52.490;13.410;2023-05-24T12:19:20;6.50;;;3.50;;
19255;SDS011;9762;52.490;13.410;2023-05-24T12:21:47;10.20;;;3.30;;
19255;SDS011;9762;52.490;13.410;2023-05-24T12:24:16;10.23;;;4.90;;
19255;SDS011;9762;52.490;13.410;2023-05-24T12:26:47;11.00;;;3.93;;
19255;SDS011;9762;52.490;13.410;2023-05-24T12:29:14;7.27;;;3.67;;
19255;SDS011;9762;52.490;13.410;2023-05-24T12:31:40;6.03;;;2.93;;
19255;SDS011;9762;52.490;13.410;2023-05-24T12:34:16;7.23;;;3.10;;
19255;SDS011;9762;52.490;13.410;2023-05-24T12:36:48;5.07;;;3.30;;
19255;SDS011;9762;52.490;13.410;2023-05-24T12:39:20;6.17;;;3.27;;
19255;SDS011;9762;52.490;13.410;2023-05-24T12:41:55;6.50;;;3.40;;
19255;SDS011;9762;52.490;13.410;2023-05-24T12:44:22;12.97;;;3.80;;
19255;SDS011;9762;52.490;13.410;2023-05-24T12:46:49;12.67;;;3.50;;
19255;SDS011;9762;52.490;13.410;2023-05-24T12:49:17;7.30;;;3.83;;
19255;SDS011;9762;52.490;13.410;2023-05-24T12:51:42;9.73;;;4.00;;
19255;SDS011;9762;52.490;13.410;2023-05-24T12:54:08;4.70;;;3.40;;
19255;SDS011;9762;52.490;13.410;2023-05-24T12:56:34;7.50;;;4.13;;
19255;SDS011;9762;52.490;13.410;2023-05-24T12:59:00;7.27;;;4.27;;
19255;SDS011;9762;52.490;13.410;2023-05-24T13:01:25;9.23;;;3.30;;
19255;SDS011;9762;52.490;13.410;2023-05-24T13:03:51;8.00;;;4.10;;
19255;SDS011;9762;52.490;13.410;2023-05-24T13:06:18;9.63;;;4.30;;
19255;SDS011;9762;52.490;13.410;2023-05-24T13:08:44;11.27;;;3.43;;
19255;SDS011;9762;52.490;13.410;2023-05-24T13:11:10;18.93;;;10.50;;
19255;SDS011;9762;52.490;13.410;2023-05-24T13:13:35;12.77;;;5.53;;
19255;SDS011;9762;52.490;13.410;2023-05-24T13:16:02;9.00;;;3.93;;
19255;SDS011;9762;52.490;13.410;2023-05-24T13:18:31;8.33;;;3.83;;
19255;SDS011;9762;52.490;13.410;2023-05-24T13:20:57;7.93;;;3.70;;
19255;SDS011;9762;52.490;13.410;2023-05-24T13:23:24;5.50;;;3.53;;
19255;SDS011;9762;52.490;13.410;2023-05-24T13:25:51;9.90;;;4.07;;
19255;SDS011;9762;52.490;13.410;2023-05-24T13:28:17;12.47;;;4.40;;
19255;SDS011;9762;52.490;13.410;2023-05-24T13:30:43;7.60;;;3.80;;
19255;SDS011;9762;52.490;13.410;2023-05-24T13:33:10;7.13;;;3.83;;
19255;SDS011;9762;52.490;13.410;2023-05-24T13:35:36;8.67;;;4.17;;
19255;SDS011;9762;52.490;13.410;2023-05-24T13:38:02;9.68;;;4.05;;
19255;SDS011;9762;52.490;13.410;2023-05-24T13:40:28;4.80;;;3.75;;
19255;SDS011;9762;52.490;13.410;2023-05-24T13:42:54;11.40;;;4.68;;
19255;SDS011;9762;52.490;13.410;2023-05-24T13:45:21;7.40;;;4.90;;
19255;SDS011;9762;52.490;13.410;2023-05-24T13:47:47;6.65;;;3.75;;
19255;SDS011;9762;52.490;13.410;2023-05-24T13:50:13;7.85;;;4.07;;
19255;SDS011;9762;52.490;13.410;2023-05-24T13:52:39;7.90;;;3.88;;
19255;SDS011;9762;52.490;13.410;2023-05-24T13:55:05;12.02;;;4.00;;
19255;SDS011;9762;52.490;13.410;2023-05-24T13:57:31;5.45;;;3.63;;
19255;SDS011;9762;52.490;13.410;2023-05-24T13:59:57;8.88;;;4.25;;
19255;SDS011;9762;52.490;13.410;2023-05-24T14:02:24;6.05;;;3.78;;
19255;SDS011;9762;52.490;13.410;2023-05-24T14:04:50;8.68;;;3.72;;
19255;SDS011;9762;52.490;13.410;2023-05-24T14:07:17;10.15;;;4.28;;
19255;SDS011;9762;52.490;13.410;2023-05-24T14:09:43;7.63;;;3.83;;
19255;SDS011;9762;52.490;13.410;2023-05-24T14:12:09;7.38;;;3.65;;
19255;SDS011;9762;52.490;13.410;2023-05-24T14:14:36;7.43;;;4.20;;
19255;SDS011;9762;52.490;13.410;2023-05-24T14:17:01;10.07;;;3.70;;
19255;SDS011;9762;52.490;13.410;2023-05-24T14:19:27;6.32;;;3.85;;
19255;SDS011;9762;52.490;13.410;2023-05-24T14:21:53;10.50;;;3.90;;
19255;SDS011;9762;52.490;13.410;2023-05-24T14:24:19;6.95;;;3.83;;
19255;SDS011;9762;52.490;13.410;2023-05-24T14:26:45;6.35;;;3.83;;
19255;SDS011;9762;52.490;13.410;2023-05-24T14:29:11;6.97;;;3.83;;
19255;SDS011;9762;52.490;13.410;2023-05-24T14:31:37;7.90;;;3.65;;
19255;SDS011;9762;52.490;13.410;2023-05-24T14:34:07;9.68;;;3.90;;
19255;SDS011;9762;52.490;13.410;2023-05-24T14:36:34;9.13;;;4.05;;
19255;SDS011;9762;52.490;13.410;2023-05-24T14:39:02;9.10;;;3.40;;
19255;SDS011;9762;52.490;13.410;2023-05-24T14:41:31;5.13;;;3.70;;
19255;SDS011;9762;52.490;13.410;2023-05-24T14:43:56;10.07;;;4.10;;
19255;SDS011;9762;52.490;13.410;2023-05-24T14:46:22;3.55;;;2.97;;
19255;SDS011;9762;52.490;13.410;2023-05-24T14:48:48;4.20;;;3.13;;
19255;SDS011;9762;52.490;13.410;2023-05-24T14:51:13;10.48;;;3.78;;
19255;SDS011;9762;52.490;13.410;2023-05-24T14:53:39;6.65;;;3.60;;
19255;SDS011;9762;52.490;13.410;2023-05-24T14:56:05;5.25;;;3.42;;